createdAt,value
2022-08-19T00:03:23.098Z,14.10
2022-08-19T00:05:52.150Z,18.05
2022-08-19T00:12:51.627Z,14.88
2022-08-19T00:16:42.872Z,16.02
2022-08-19T00:20:16.449Z,15.23
2022-08-19T00:23:16.739Z,17.35
2022-08-19T00:25:53.705Z,18.67
2022-08-19T00:32:45.926Z,17.48
2022-08-19T00:35:15.006Z,14.05
2022-08-19T00:38:55.512Z,18.13
2022-08-19T00:45:44.732Z,13.55
2022-08-19T00:48:48.913Z,15.30
2022-08-19T00:51:17.734Z,16.80
2022-08-19T00:57:23.897Z,18.95
2022-08-19T01:09:09.225Z,17.52
2022-08-19T01:16:33.938Z,14.40
2022-08-19T01:23:48.892Z,14.23
2022-08-19T01:26:20.193Z,14.95
2022-08-19T01:33:06.677Z,18.40
2022-08-19T01:35:37.565Z,17.15
2022-08-19T01:39:23.726Z,15.70
2022-08-19T01:41:55.491Z,12.13
2022-08-19T01:44:26.103Z,16.63
2022-08-19T01:48:01.987Z,15.55
2022-08-19T01:50:32.882Z,13.77
2022-08-19T01:57:27.235Z,15.57
2022-08-19T01:59:56.414Z,15.23
2022-08-19T02:03:00.322Z,11.82
2022-08-19T02:05:30.382Z,14.63
2022-08-19T02:12:24.019Z,13.45
2022-08-19T02:14:54.530Z,13.00
2022-08-19T02:17:52.802Z,15.55
2022-08-19T02:24:55.525Z,14.07
2022-08-19T02:28:37.566Z,14.23
2022-08-19T02:31:12.173Z,12.93
2022-08-19T02:38:28.257Z,17.50
2022-08-19T02:46:48.950Z,17.50
2022-08-19T02:54:06.995Z,13.43
2022-08-19T03:00:59.657Z,12.93
2022-08-19T03:04:02.963Z,12.43
2022-08-19T03:06:38.000Z,14.25
2022-08-19T03:09:39.293Z,13.40
2022-08-19T03:12:08.878Z,12.85
2022-08-19T03:14:38.918Z,13.35
2022-08-19T03:26:16.824Z,13.90
2022-08-19T03:42:38.500Z,13.18
2022-08-19T03:45:19.729Z,15.13
2022-08-19T04:00:37.987Z,12.93
2022-08-19T04:08:51.778Z,14.32
2022-08-19T04:11:23.233Z,15.18
2022-08-19T04:14:12.961Z,10.90
2022-08-19T04:17:39.048Z,16.38
2022-08-19T04:32:54.705Z,15.82
2022-08-19T04:35:25.035Z,15.45
2022-08-19T04:38:35.846Z,14.30
2022-08-19T04:41:23.854Z,11.57
2022-08-19T04:43:52.670Z,14.23
2022-08-19T04:46:37.542Z,12.85
2022-08-19T04:53:56.327Z,12.38
2022-08-19T04:56:27.518Z,14.38
2022-08-19T04:59:24.439Z,18.27
2022-08-19T05:01:53.627Z,12.75
2022-08-19T05:05:44.889Z,13.73
2022-08-19T05:08:19.736Z,11.70
2022-08-19T05:11:31.451Z,11.63
2022-08-19T05:14:01.081Z,11.13
2022-08-19T05:17:28.491Z,16.38
2022-08-19T05:24:12.194Z,11.93
2022-08-19T05:26:47.413Z,10.80
2022-08-19T05:29:23.922Z,14.60
2022-08-19T05:42:00.343Z,11.52
2022-08-19T05:44:33.039Z,12.85
2022-08-19T05:47:03.158Z,13.07
2022-08-19T05:49:33.037Z,10.10
2022-08-19T05:52:03.688Z,10.55
2022-08-19T05:54:32.790Z,16.35
2022-08-19T05:58:09.797Z,15.07
2022-08-19T06:05:03.476Z,25.38
2022-08-19T06:12:16.100Z,13.43
2022-08-19T06:14:48.384Z,17.55
2022-08-19T06:17:36.236Z,17.25
2022-08-19T06:20:09.852Z,13.55
2022-08-19T06:22:41.992Z,31.35
2022-08-19T06:25:12.825Z,23.15
2022-08-19T06:28:13.405Z,14.70
2022-08-19T06:30:34.480Z,23.88
2022-08-19T06:33:03.703Z,10.90
2022-08-19T06:35:33.892Z,18.33
2022-08-19T06:38:06.227Z,15.13
2022-08-19T06:40:36.757Z,18.90
2022-08-19T06:43:07.685Z,10.50
2022-08-19T06:45:41.757Z,13.85
2022-08-19T06:52:38.285Z,13.55
2022-08-19T06:55:08.610Z,14.93
2022-08-19T06:58:34.914Z,10.73
2022-08-19T07:01:09.184Z,23.85
2022-08-19T07:03:39.804Z,22.25
2022-08-19T07:06:43.545Z,32.90
2022-08-19T07:09:11.585Z,22.70
2022-08-19T07:11:41.869Z,16.67
2022-08-19T07:15:12.671Z,18.05
2022-08-19T07:21:56.898Z,12.63
2022-08-19T07:24:55.463Z,11.35
2022-08-19T07:31:49.105Z,15.02
2022-08-19T07:34:21.376Z,11.15
2022-08-19T07:36:56.768Z,8.68
2022-08-19T07:39:29.768Z,26.92
2022-08-19T07:42:19.143Z,10.63
2022-08-19T07:44:50.668Z,16.00
2022-08-19T07:47:49.615Z,15.60
2022-08-19T07:50:13.720Z,14.73
2022-08-19T07:53:08.306Z,11.20
2022-08-19T08:04:52.847Z,12.95
2022-08-19T08:11:49.948Z,10.10
2022-08-19T08:14:29.258Z,11.82
2022-08-19T08:18:12.229Z,14.82
2022-08-19T08:20:47.415Z,10.18
2022-08-19T08:23:26.320Z,10.10
2022-08-19T08:25:57.671Z,13.70
2022-08-19T08:33:00.665Z,17.83
2022-08-19T08:35:31.828Z,19.33
2022-08-19T08:38:06.215Z,22.42
2022-08-19T08:40:42.652Z,23.92
2022-08-19T08:43:26.694Z,15.65
2022-08-19T08:46:05.613Z,14.13
2022-08-19T08:49:08.596Z,9.68
2022-08-19T08:51:50.019Z,12.88
2022-08-19T08:54:37.618Z,11.43
2022-08-19T08:57:42.658Z,10.70
2022-08-19T09:00:22.136Z,15.75
2022-08-19T09:02:51.715Z,11.32
2022-08-19T09:05:48.645Z,8.27
2022-08-19T09:08:32.073Z,38.92
2022-08-19T09:11:09.848Z,23.38
2022-08-19T09:13:55.785Z,23.90
2022-08-19T09:16:32.418Z,29.15
2022-08-19T09:19:29.549Z,22.38
2022-08-19T09:21:59.065Z,21.15
2022-08-19T09:24:33.515Z,32.20
2022-08-19T09:27:08.316Z,11.90
2022-08-19T09:29:50.111Z,12.13
2022-08-19T09:32:26.825Z,13.65
2022-08-19T09:34:59.286Z,13.88
2022-08-19T09:37:32.000Z,9.80
2022-08-19T09:40:02.674Z,9.27
2022-08-19T09:42:35.339Z,10.13
2022-08-19T09:45:05.963Z,12.95
2022-08-19T09:47:46.279Z,11.88
2022-08-19T09:50:25.881Z,14.15
2022-08-19T09:52:57.408Z,13.30
2022-08-19T09:55:34.877Z,12.48
2022-08-19T09:58:09.938Z,17.70
2022-08-19T10:00:41.414Z,11.70
2022-08-19T10:03:10.113Z,14.50
2022-08-19T10:05:55.475Z,11.70
2022-08-19T10:08:34.016Z,9.55
2022-08-19T10:11:27.244Z,20.95
2022-08-19T10:13:56.204Z,14.00
2022-08-19T10:16:53.547Z,37.67
2022-08-19T10:19:25.563Z,13.13
2022-08-19T10:22:00.285Z,7.75
2022-08-19T10:24:30.127Z,15.40
2022-08-19T10:26:59.876Z,12.07
2022-08-19T10:29:35.600Z,12.75
2022-08-19T10:32:10.028Z,20.23
2022-08-19T10:34:48.094Z,11.05
2022-08-19T10:40:04.707Z,9.85
2022-08-19T10:42:34.647Z,10.75
2022-08-19T10:45:08.238Z,9.50
2022-08-19T10:48:15.733Z,13.20
2022-08-19T10:51:09.039Z,12.27
2022-08-19T10:53:37.891Z,8.93
2022-08-19T10:56:24.675Z,15.93
2022-08-19T10:58:53.775Z,9.57
2022-08-19T11:01:24.594Z,12.68
2022-08-19T11:04:28.869Z,7.45
2022-08-19T11:07:13.651Z,10.40
2022-08-19T11:09:44.441Z,8.77
2022-08-19T11:12:14.889Z,10.02
2022-08-19T11:14:44.712Z,8.80
2022-08-19T11:17:44.785Z,6.55
2022-08-19T11:20:15.419Z,5.78
2022-08-19T11:22:45.404Z,23.23
2022-08-19T11:25:19.179Z,9.80
2022-08-19T11:32:33.312Z,10.43
2022-08-19T11:35:04.787Z,9.48
2022-08-19T11:43:03.622Z,23.75
2022-08-19T11:45:34.724Z,18.33
2022-08-19T11:52:51.168Z,39.05
2022-08-19T11:55:26.517Z,8.55
2022-08-19T11:58:14.808Z,8.80
2022-08-19T12:05:44.391Z,8.63
2022-08-19T12:08:16.650Z,6.03
2022-08-19T12:10:46.656Z,8.63
2022-08-19T12:14:02.498Z,9.82
2022-08-19T12:16:34.321Z,11.93
2022-08-19T12:19:05.692Z,10.35
2022-08-19T12:22:38.413Z,7.88
2022-08-19T12:25:09.927Z,9.73
2022-08-19T12:32:12.479Z,11.18
2022-08-19T12:34:41.674Z,12.15
2022-08-19T12:37:10.738Z,9.80
2022-08-19T12:39:42.535Z,8.20
2022-08-19T12:42:14.561Z,11.35
2022-08-19T12:49:59.197Z,9.57
2022-08-19T12:52:29.331Z,7.63
2022-08-19T12:55:00.199Z,10.38
2022-08-19T12:57:54.112Z,9.43
2022-08-19T13:00:24.231Z,10.68
2022-08-19T13:02:54.541Z,12.27
2022-08-19T13:05:29.925Z,9.18
2022-08-19T13:08:15.356Z,9.63
2022-08-19T13:10:44.149Z,14.27
2022-08-19T13:13:14.662Z,10.63
2022-08-19T13:15:46.258Z,19.23
2022-08-19T13:18:29.560Z,9.07
2022-08-19T13:20:58.539Z,8.85
2022-08-19T13:23:27.324Z,11.43
2022-08-19T13:27:19.239Z,8.05
2022-08-19T13:34:31.294Z,9.45
2022-08-19T13:37:41.274Z,10.32
2022-08-19T13:44:21.800Z,11.45
2022-08-19T13:46:54.322Z,14.27
2022-08-19T13:50:09.718Z,10.20
2022-08-19T13:57:23.958Z,11.10
2022-08-19T14:04:25.903Z,10.13
2022-08-19T14:11:48.434Z,8.93
2022-08-19T14:14:19.031Z,12.52
2022-08-19T14:16:50.286Z,10.98
2022-08-19T14:19:51.016Z,12.07
2022-08-19T14:22:27.042Z,10.75
2022-08-19T14:24:56.116Z,20.33
2022-08-19T14:27:52.266Z,14.00
2022-08-19T14:30:28.681Z,63.53
2022-08-19T14:32:59.141Z,82.90
2022-08-19T14:35:28.999Z,59.90
2022-08-19T14:38:22.071Z,63.85
2022-08-19T14:41:10.306Z,58.45
2022-08-19T14:43:39.470Z,35.40
2022-08-19T14:46:12.083Z,24.30
2022-08-19T14:48:51.881Z,22.38
2022-08-19T14:51:24.424Z,27.00
2022-08-19T14:53:54.481Z,20.27
2022-08-19T14:56:27.847Z,15.07
2022-08-19T14:59:12.597Z,26.95
2022-08-19T15:01:43.401Z,15.85
2022-08-19T15:04:12.807Z,15.85
2022-08-19T15:06:45.602Z,13.73
2022-08-19T15:09:43.148Z,11.35
2022-08-19T15:12:11.899Z,17.83
2022-08-19T15:14:56.882Z,14.50
2022-08-19T15:17:41.394Z,9.35
2022-08-19T15:20:18.965Z,11.45
2022-08-19T15:22:48.019Z,10.85
2022-08-19T15:29:50.167Z,11.38
2022-08-19T15:32:28.835Z,9.00
2022-08-19T15:36:12.225Z,8.05
2022-08-19T15:43:30.083Z,10.07
2022-08-19T15:45:59.292Z,9.10
2022-08-19T15:49:49.743Z,10.60
2022-08-19T15:58:20.537Z,8.65
2022-08-19T16:05:29.281Z,11.15
2022-08-19T16:09:02.516Z,10.27
2022-08-19T16:11:39.419Z,9.85
2022-08-19T16:14:10.034Z,8.63
2022-08-19T16:17:12.794Z,9.80
2022-08-19T16:24:22.880Z,12.40
2022-08-19T16:27:20.295Z,12.48
2022-08-19T16:29:52.504Z,11.30
2022-08-19T16:32:24.283Z,10.27
2022-08-19T16:34:53.204Z,9.38
2022-08-19T16:37:51.000Z,9.93
2022-08-19T16:40:21.696Z,9.65
2022-08-19T16:42:52.469Z,9.63
2022-08-19T16:45:22.176Z,12.40
2022-08-19T16:47:54.783Z,13.75
2022-08-19T16:50:39.292Z,16.10
2022-08-19T16:54:22.673Z,12.32
2022-08-19T17:01:36.340Z,17.10
2022-08-19T17:04:05.833Z,14.07
2022-08-19T17:06:36.945Z,12.32
2022-08-19T17:09:16.361Z,13.65
2022-08-19T17:11:54.782Z,11.57
2022-08-19T17:14:23.671Z,13.40
2022-08-19T17:16:55.037Z,14.80
2022-08-19T17:19:24.047Z,10.90
2022-08-19T17:21:53.512Z,11.85
2022-08-19T17:24:22.484Z,11.43
2022-08-19T17:31:10.795Z,10.98
2022-08-19T17:38:32.318Z,12.27
2022-08-19T17:41:06.023Z,12.02
2022-08-19T17:43:39.996Z,15.35
2022-08-19T17:46:17.957Z,13.45
2022-08-19T17:51:27.453Z,10.35
2022-08-19T17:53:58.169Z,8.13
2022-08-19T17:56:28.960Z,14.18
2022-08-19T17:59:04.529Z,9.25
2022-08-19T18:01:52.021Z,10.85
2022-08-19T18:05:02.420Z,15.55
2022-08-19T18:08:33.010Z,15.38
2022-08-19T18:11:08.871Z,14.05
2022-08-19T18:13:38.581Z,15.85
2022-08-19T18:16:11.453Z,13.35
2022-08-19T18:19:11.678Z,12.77
2022-08-19T18:21:54.681Z,22.90
2022-08-19T18:24:23.567Z,10.55
2022-08-19T18:32:23.586Z,15.32
2022-08-19T18:34:57.422Z,12.93
2022-08-19T18:46:41.984Z,15.68
2022-08-19T18:49:43.362Z,15.48
2022-08-19T18:52:14.458Z,11.68
2022-08-19T18:54:44.403Z,7.95
2022-08-19T19:02:08.839Z,14.75
2022-08-19T19:05:14.500Z,9.93
2022-08-19T19:12:11.632Z,14.68
2022-08-19T19:14:49.355Z,12.75
2022-08-19T19:17:26.584Z,13.43
2022-08-19T19:19:55.347Z,10.27
2022-08-19T19:22:25.162Z,9.95
2022-08-19T19:24:55.620Z,10.50
2022-08-19T19:31:52.832Z,15.13
2022-08-19T19:34:29.504Z,13.85
2022-08-19T19:38:11.608Z,11.38
2022-08-19T19:41:52.880Z,12.07
2022-08-19T19:49:00.074Z,10.02
2022-08-19T19:51:31.042Z,15.00
2022-08-19T19:54:32.200Z,11.55
2022-08-19T19:57:58.912Z,17.80
2022-08-19T20:00:28.073Z,12.15
2022-08-19T20:04:02.004Z,9.90
2022-08-19T20:07:11.090Z,13.18
2022-08-19T20:09:58.695Z,11.55
2022-08-19T20:12:28.200Z,10.63
2022-08-19T20:14:57.297Z,13.75
2022-08-19T20:17:32.692Z,14.63
2022-08-19T20:20:02.629Z,12.07
2022-08-19T20:28:00.127Z,17.13
2022-08-19T20:30:33.292Z,18.17
2022-08-19T20:33:06.965Z,10.75
2022-08-19T20:44:41.754Z,10.75
2022-08-19T20:47:12.787Z,13.60
2022-08-19T20:49:42.399Z,13.18
2022-08-19T20:52:12.362Z,15.10
2022-08-19T20:54:41.655Z,11.98
2022-08-19T20:57:22.694Z,13.30
2022-08-19T20:59:52.322Z,14.70
2022-08-19T21:07:04.589Z,12.52
2022-08-19T21:09:43.025Z,12.32
2022-08-19T21:12:14.478Z,11.57
2022-08-19T21:14:45.118Z,13.82
2022-08-19T21:17:13.979Z,10.80
2022-08-19T21:19:42.765Z,14.13
2022-08-19T21:22:13.065Z,11.15
2022-08-19T21:24:43.247Z,13.93
2022-08-19T21:27:15.003Z,9.90
2022-08-19T21:29:44.321Z,13.07
2022-08-19T21:32:14.588Z,9.57
2022-08-19T21:34:46.528Z,10.93
2022-08-19T21:37:26.144Z,16.10
2022-08-19T21:39:55.509Z,11.43
2022-08-19T21:42:27.423Z,14.18
2022-08-19T21:44:57.970Z,13.43
2022-08-19T21:47:58.288Z,9.38
2022-08-19T21:51:38.161Z,12.02
2022-08-19T21:58:43.091Z,10.98
2022-08-19T22:01:12.303Z,10.65
2022-08-19T22:04:12.348Z,12.90
2022-08-19T22:11:23.833Z,14.63
2022-08-19T22:18:28.451Z,13.27
2022-08-19T22:20:58.384Z,14.60
2022-08-19T22:23:27.836Z,12.48
2022-08-19T22:35:04.832Z,13.93
2022-08-19T22:38:38.647Z,12.43
2022-08-19T22:41:11.706Z,10.05
2022-08-19T22:43:40.764Z,11.82
2022-08-19T22:46:16.793Z,9.02
2022-08-19T22:49:00.573Z,8.88
2022-08-19T22:56:10.864Z,11.98
2022-08-19T22:59:55.962Z,10.63
2022-08-19T23:02:34.633Z,10.30
2022-08-19T23:05:50.705Z,13.75
2022-08-19T23:08:29.348Z,13.90
2022-08-19T23:10:58.573Z,11.25
2022-08-19T23:13:31.828Z,11.05
2022-08-19T23:16:00.831Z,9.43
2022-08-19T23:18:30.124Z,11.93
2022-08-19T23:20:59.375Z,8.25
2022-08-19T23:23:29.991Z,10.18
2022-08-19T23:25:59.681Z,13.15
2022-08-19T23:34:06.874Z,8.07
2022-08-19T23:36:38.264Z,11.35
2022-08-19T23:39:07.335Z,13.10
2022-08-19T23:42:40.058Z,14.20
2022-08-19T23:45:10.377Z,13.50
2022-08-19T23:47:47.472Z,11.35
2022-08-19T23:50:17.285Z,12.38
2022-08-19T23:52:51.356Z,11.63
2022-08-19T23:55:37.017Z,11.25
2022-08-19T23:58:16.776Z,12.35
